GCTS/TFS METAR and TAF weather

Enter ICAO airport designator
Station Type Date Time Source
GCTS METAR 2022/07/03 14:00 UTC NOAA

GCTS 031400Z 09022KT 9999 FEW030 26/17 Q1020 WS R07 NOSIG


Station Type Date Time Source
GCTS Decoded METAR 2022/07/03 14:00 UTC NOAA

Tenerife Sur, Spain (GCTS) 28-03N 016-34W 77M
Jul 03, 2022 - 10:00 AM EDT / 2022.07.03 1400 UTC
Wind: from the E (090 degrees) at 25 MPH (22 KT):0
Visibility: greater than 7 mile(s):0
Sky conditions: mostly clear
Temperature: 78 F (26 C)
Dew Point: 62 F (17 C)
Relative Humidity: 57%
Pressure (altimeter): 30.12 in. Hg (1020 hPa)
ob: GCTS 031400Z 09022KT 9999 FEW030 26/17 Q1020 WS R07 NOSIG
cycle: 14

Station Type Date Time Source
GCTS TAF 2022/07/03 09:27 UTC NOAA

TAF GCTS 030800Z 0309/0409 10020KT 9999 SCT035 TX27/0314Z TN20/0406Z
TEMPO 0309/0311 04012KT PROB40
TEMPO 0311/0319 08018G28KT
BECMG 0400/0402 04012KT

Example: see airport list